Terminal Aerodrome Forecast
Issued by NWS

Home | Current Version | Previous Version | Text Only | Print | Product List | Glossary Off
Versions: 1 2 3 4 5 6 7 8 9 10 11 12 13 14 15 16 17

174
FTUS43 KMPX 120803 AAA
TAFRWF
TAF AMD
KRWF 120803Z 1208/1306 32008KT P6SM SCT012 BKN035
     FM121400 32015G23KT P6SM SKC
     FM122200 32009KT P6SM SKC=

USA.gov is the U.S. government's official web portal to all federal, state and local government web resources and services.